Stevenson, Connecticut
Current Conditions -  °F | °C
As of 4:50 PM on Monday 22 Dec 2014 (Local Time) from KOXC Reporting Station
Overcast Overcast  
Wind Chill: 37°   Ceiling: 4100
Heat Index: 37°   Visibility: 10mi
Dew Point: 30°   Wind: 3mph
Humidity: 75%   Direction: 90°E
Pressure: 30.26"   Gusts: NA
Location:  41.38°N, 73.18°W
Report Text: KOXC 222150Z 09003KT 10SM SCT020 OVC041 03/M01 A3026
Loading
Personal Weather Stations






























Interactive Weather Map New forecast layout! Learn more

10-Day Weather Forecast

Advertisements
Track Severe Weather on mobile